Time;durP1;ratioP1;P1;durP2;ratioP2;P2;SDS_P1;SDS_P2;PMS_P1;PMS_P2;Temp;Humidity;BMP_temperature;BMP_pressure;BME280_temperature;BME280_humidity;BME280_pressure;Samples;Min_cycle;Max_cycle;Signal;HPM_P1;HPM_P2
2022/05/03 00:00:10;;;;;;;10.73;7.47;;;;;;;;;;5138239;27;20289;-87
2022/05/03 00:03:01;;;;;;;11.40;7.43;;;;;;;;;;5138402;27;20160;-87
2022/05/03 00:05:51;;;;;;;12.95;8.80;;;;;;;;;;5154401;27;20057;-87
2022/05/03 00:08:44;;;;;;;11.43;8.00;;;;;;;;;;5138809;27;20083;-86
2022/05/03 00:11:33;;;;;;;11.50;7.70;;;;;;;;;;5138644;27;20382;-86
2022/05/03 00:14:41;;;;;;;14.85;8.00;;;6.20;99.90;;;;;;5138665;27;20088;-86
2022/05/03 00:17:26;;;;;;;15.40;7.82;;;;;;;;;;5138554;27;20071;-86
2022/05/03 00:20:11;;;;;;;10.68;6.97;;;;;;;;;;5137955;27;20041;-86
2022/05/03 00:22:56;;;;;;;11.93;7.35;;;;;;;;;;5153992;27;20062;-86
2022/05/03 00:25:41;;;;;;;13.95;7.97;;;;;;;;;;5154213;27;20076;-86
2022/05/03 00:28:26;;;;;;;13.98;8.80;;;;;;;;;;5138466;27;20118;-86
2022/05/03 00:31:11;;;;;;;13.50;8.05;;;;;;;;;;5138073;27;20126;-86
2022/05/03 00:33:57;;;;;;;16.35;9.07;;;;;;;;;;5138031;27;20489;-86
2022/05/03 00:36:42;;;;;;;12.05;7.68;;;;;;;;;;5138391;27;20386;-86
2022/05/03 00:39:27;;;;;;;13.10;8.35;;;;;;;;;;5154241;27;20037;-86
2022/05/03 00:42:30;;;;;;;12.73;8.10;;;;;;;;;;5137973;27;20310;-86
2022/05/03 00:45:25;;;;;;;10.02;5.90;;;;;;;;;;5137870;27;20034;-87
2022/05/03 00:48:34;;;;;;;12.25;8.07;;;;;;;;;;5153573;27;20489;-86
2022/05/03 00:51:26;;;;;;;13.18;8.23;;;;;;;;;;5138528;27;20126;-87
2022/05/03 00:54:17;;;;;;;10.23;7.78;;;;;;;;;;5141585;27;20042;-87
2022/05/03 00:57:08;;;;;;;14.23;8.90;;;;;;;;;;5141704;27;20033;-87
2022/05/03 01:00:13;;;;;;;15.82;8.75;;;5.80;99.90;;;;;;5142038;27;20125;-87
2022/05/03 01:03:00;;;;;;;;;;;5.80;99.90;;;;;;5142183;27;20446;-87
2022/05/03 01:06:12;;;;;;;11.32;8.15;;;5.70;99.90;;;;;;5141947;27;20403;-87
2022/05/03 01:09:07;;;;;;;12.75;7.78;;;;;;;;;;5156838;27;20045;-88
2022/05/03 01:11:52;;;;;;;11.02;7.75;;;;;;;;;;5141930;27;20051;-87
2022/05/03 01:14:46;;;;;;;11.23;7.93;;;;;;;;;;5141886;27;20033;-87
2022/05/03 01:17:42;;;;;;;8.45;6.15;;;;;;;;;;5141817;27;20041;-86
2022/05/03 01:20:34;;;;;;;12.70;8.40;;;;;;;;;;5141738;27;20042;-87
2022/05/03 01:23:47;;;;;;;15.68;9.15;;;5.70;99.90;;;;;;5156746;27;20122;-87
2022/05/03 01:26:48;;;;;;;12.80;8.18;;;;;;;;;;5141640;27;20038;-87
2022/05/03 01:29:34;;;;;;;13.82;8.60;;;;;;;;;;5157440;27;20443;-87
2022/05/03 01:32:22;;;;;;;13.48;8.77;;;;;;;;;;5141090;27;20041;-87
2022/05/03 01:35:07;;;;;;;15.48;8.30;;;;;;;;;;5126918;27;20071;-86
2022/05/03 01:38:15;;;;;;;18.90;9.75;;;;;;;;;;5141470;27;20083;-87
2022/05/03 01:41:03;;;;;;;11.75;8.85;;;;;;;;;;5156858;27;20046;-86
2022/05/03 01:44:04;;;;;;;17.52;10.02;;;;;;;;;;5152578;27;20059;-87
2022/05/03 01:46:54;;;;;;;15.07;8.55;;;;;;;;;;5141334;27;20444;-87
2022/05/03 01:53:08;;;;;;;15.35;9.05;;;;;;;;;;5156950;27;20117;-86
2022/05/03 01:56:04;;;;;;;15.27;8.45;;;;;;;;;;5141030;27;20486;-86
2022/05/03 01:59:15;;;;;;;14.18;8.57;;;5.40;99.90;;;;;;5156805;27;20033;-87
2022/05/03 02:02:10;;;;;;;15.40;8.02;;;;;;;;;;5156722;27;20138;-87
2022/05/03 02:04:54;;;;;;;13.85;8.57;;;;;;;;;;5140743;27;20034;-87
2022/05/03 02:07:55;;;;;;;11.10;7.88;;;;;;;;;;5140858;27;20034;-87
2022/05/03 02:11:00;;;;;;;11.65;7.60;;;;;;;;;;5140928;27;20405;-87
2022/05/03 02:17:10;;;;;;;13.45;8.82;;;;;;;;;;5157021;27;20125;-87
2022/05/03 02:19:55;;;;;;;12.20;8.80;;;;;;;;;;5157283;27;20536;-87
2022/05/03 02:22:39;;;;;;;13.38;8.32;;;;;;;;;;5157054;27;20064;-86
2022/05/03 02:25:24;;;;;;;12.23;8.43;;;;;;;;;;5142100;27;20073;-87
2022/05/03 02:28:09;;;;;;;14.50;8.13;;;;;;;;;;5160613;27;20046;-86
2022/05/03 02:31:00;;;;;;;10.88;7.68;;;;;;;;;;5165431;27;20041;-86
2022/05/03 02:34:01;;;;;;;21.17;9.13;;;;;;;;;;5165209;27;20026;-86
2022/05/03 02:36:53;;;;;;;11.05;7.55;;;;;;;;;;5166185;27;20027;-85
2022/05/03 02:39:39;;;;;;;14.15;8.68;;;;;;;;;;5161511;27;20041;-87
2022/05/03 02:42:25;;;;;;;12.05;8.23;;;;;;;;;;5167603;27;20053;-86
2022/05/03 02:45:12;;;;;;;11.55;8.13;;;;;;;;;;5143056;27;20142;-87
2022/05/03 02:48:18;;;;;;;10.95;8.07;;;;;;;;;;5156874;27;20499;-87
2022/05/03 02:51:04;;;;;;;13.05;7.70;;;;;;;;;;5140349;27;20073;-86
2022/05/03 02:53:55;;;;;;;15.35;8.50;;;;;;;;;;5140130;27;20447;-86
2022/05/03 02:57:00;;;;;;;12.35;8.23;;;;;;;;;;5140127;27;20034;-86
2022/05/03 03:03:19;;;;;;;13.38;8.75;;;;;;;;;;5155420;27;20038;-86
2022/05/03 03:06:05;;;;;;;12.68;8.57;;;;;;;;;;5139873;27;20122;-86
2022/05/03 03:08:50;;;;;;;13.05;8.73;;;;;;;;;;5139704;27;20447;-86
2022/05/03 03:11:45;;;;;;;15.90;8.57;;;;;;;;;;5139925;27;20413;-86
2022/05/03 03:14:49;;;;;;;12.75;8.68;;;;;;;;;;5138816;27;20053;-87
2022/05/03 03:17:50;;;;;;;10.90;7.93;;;;;;;;;;5139190;27;20054;-86
2022/05/03 03:20:36;;;;;;;13.18;8.48;;;;;;;;;;5138954;27;20041;-86
2022/05/03 03:23:25;;;;;;;15.45;8.50;;;;;;;;;;5138846;27;20050;-86
2022/05/03 03:26:10;;;;;;;15.05;9.40;;;;;;;;;;5139228;27;20060;-86
2022/05/03 03:28:55;;;;;;;11.57;8.50;;;;;;;;;;5139270;27;20402;-86
2022/05/03 03:31:42;;;;;;;15.50;9.65;;;;;;;;;;5139471;27;20538;-86
2022/05/03 03:34:30;;;;;;;13.50;9.90;;;;;;;;;;5138882;27;20038;-86
2022/05/03 03:37:16;;;;;;;13.70;9.18;;;;;;;;;;5138679;27;20042;-86
2022/05/03 03:40:01;;;;;;;14.77;10.07;;;;;;;;;;5139013;27;20069;-87
2022/05/03 03:42:46;;;;;;;17.17;11.73;;;;;;;;;;5139096;27;20117;-87
2022/05/03 03:45:31;;;;;;;18.83;11.07;;;;;;;;;;5138470;27;20122;-87
2022/05/03 03:48:15;;;;;;;17.83;12.25;;;;;;;;;;5138677;27;20064;-86
2022/05/03 03:51:00;;;;;;;15.23;11.98;;;;;;;;;;5138966;27;20490;-87
2022/05/03 03:53:45;;;;;;;16.85;12.38;;;;;;;;;;5139217;27;20069;-87
2022/05/03 03:56:30;;;;;;;17.50;12.25;;;;;;;;;;5138379;27;20080;-87
2022/05/03 03:59:15;;;;;;;19.17;12.65;;;;;;;;;;5138559;27;20073;-88
2022/05/03 04:02:00;;;;;;;18.15;12.85;;;;;;;;;;5138951;27;20057;-87
2022/05/03 04:04:45;;;;;;;18.83;13.27;;;;;;;;;;5138873;27;20075;-87
2022/05/03 04:07:32;;;;;;;20.52;13.70;;;;;;;;;;5138529;27;20428;-87
2022/05/03 04:10:20;;;;;;;20.70;13.93;;;;;;;;;;5138395;27;20091;-87
2022/05/03 04:13:05;;;;;;;22.40;15.18;;;;;;;;;;5154497;27;20501;-87
2022/05/03 04:15:52;;;;;;;21.15;13.93;;;;;;;;;;5138759;27;20050;-87
2022/05/03 04:18:46;;;;;;;20.60;14.32;;;;;;;;;;5138282;27;20080;-87
2022/05/03 04:21:31;;;;;;;;;;;6.40;99.90;;;;;;5138674;27;20050;-88
2022/05/03 04:24:16;;;;;;;21.73;14.45;;;;;;;;;;5138793;27;19921;-87
2022/05/03 04:27:01;;;;;;;20.77;16.02;;;;;;;;;;5139032;27;20569;-87
2022/05/03 04:29:46;;;;;;;19.35;14.07;;;;;;;;;;5128609;27;20033;-87
2022/05/03 04:32:31;;;;;;;22.65;15.65;;;;;;;;;;5142312;27;20048;-86
2022/05/03 04:35:16;;;;;;;22.20;15.15;;;;;;;;;;5158478;27;20110;-87
2022/05/03 04:38:00;;;;;;;23.40;16.77;;;;;;;;;;5128166;27;20041;-87
2022/05/03 04:40:45;;;;;;;25.15;17.52;;;;;;;;;;5142900;27;20041;-87
2022/05/03 04:43:29;;;;;;;24.48;17.10;;;;;;;;;;5142192;27;20041;-88
2022/05/03 04:46:16;;;;;;;22.58;15.90;;;;;;;;;;5142595;27;20060;-87
2022/05/03 04:49:01;;;;;;;22.77;15.95;;;;;;;;;;5142553;27;20073;-87
2022/05/03 04:51:46;;;;;;;23.85;16.00;;;;;;;;;;5142232;27;20034;-87
2022/05/03 04:54:30;;;;;;;27.05;16.67;;;;;;;;;;5141935;27;20126;-87
2022/05/03 04:57:16;;;;;;;23.67;17.50;;;;;;;;;;5142346;27;20042;-88
2022/05/03 05:00:01;;;;;;;25.27;17.10;;;;;;;;;;5142374;27;20046;-87
2022/05/03 05:02:45;;;;;;;23.13;17.13;;;;;;;;;;5157406;27;20079;-87
2022/05/03 05:05:32;;;;;;;27.77;17.75;;;;;;;;;;5141757;27;20033;-87
2022/05/03 05:08:17;;;;;;;24.80;17.55;;;;;;;;;;5142380;27;20398;-87
2022/05/03 05:11:02;;;;;;;25.95;17.33;;;;;;;;;;5141952;27;20038;-87
2022/05/03 05:13:46;;;;;;;28.80;19.73;;;;;;;;;;5141626;27;20049;-87
2022/05/03 05:16:31;;;;;;;23.40;17.10;;;;;;;;;;5141384;27;20076;-87
2022/05/03 05:19:16;;;;;;;26.10;18.23;;;;;;;;;;5157574;27;20098;-87
2022/05/03 05:22:01;;;;;;;25.35;18.45;;;;;;;;;;5157591;27;20042;-87
2022/05/03 05:24:45;;;;;;;29.33;18.48;;;;;;;;;;5141478;27;20050;-87
2022/05/03 05:27:30;;;;;;;27.65;19.15;;;;;;;;;;5141466;27;20041;-87
2022/05/03 05:30:15;;;;;;;28.92;18.80;;;;;;;;;;5141869;27;20099;-87
2022/05/03 05:32:59;;;;;;;31.02;19.83;;;;;;;;;;5142015;27;20033;-87
2022/05/03 05:35:47;;;;;;;26.40;18.90;;;;;;;;;;5146098;27;20049;-87
2022/05/03 05:38:32;;;;;;;30.02;20.95;;;;;;;;;;5144182;27;20435;-87
2022/05/03 05:41:17;;;;;;;28.63;20.33;;;;;;;;;;5141394;27;20038;-87
2022/05/03 05:44:03;;;;;;;26.50;18.52;;;;;;;;;;5141544;27;20030;-87
2022/05/03 05:46:47;;;;;;;29.23;19.25;;;;;;;;;;5141003;27;20270;-87
2022/05/03 05:49:32;;;;;;;31.95;20.77;;;;;;;;;;5140880;27;20038;-88
2022/05/03 05:55:20;;;;;;;30.60;19.77;;;;;;;;;;5156823;27;20076;-87
2022/05/03 05:58:05;;;;;;;27.60;19.63;;;;;;;;;;5141179;27;20079;-88
2022/05/03 06:00:49;;;;;;;33.58;21.05;;;;;;;;;;5140541;27;20050;-87
2022/05/03 06:03:34;;;;;;;29.92;20.08;;;;;;;;;;5140630;27;20034;-87
2022/05/03 06:06:18;;;;;;;28.35;19.48;;;;;;;;;;5156686;27;20390;-88
2022/05/03 06:09:03;;;;;;;31.77;19.15;;;;;;;;;;5141104;27;20038;-87
2022/05/03 06:11:48;;;;;;;30.60;21.10;;;;;;;;;;5140371;27;20087;-87
2022/05/03 06:14:33;;;;;;;32.22;20.23;;;;;;;;;;5156038;27;20485;-87
2022/05/03 06:17:18;;;;;;;33.80;20.58;;;;;;;;;;5140957;27;20041;-88
2022/05/03 06:20:02;;;;;;;34.30;21.00;;;;;;;;;;5140694;27;20091;-86
2022/05/03 06:22:47;;;;;;;30.95;20.65;;;;;;;;;;5140158;27;20079;-87
2022/05/03 06:25:32;;;;;;;32.33;20.27;;;;;;;;;;5156155;27;20037;-87
2022/05/03 06:28:19;;;;;;;30.25;20.77;;;;;;;;;;5140656;27;20038;-87
2022/05/03 06:31:04;;;;;;;46.05;22.23;;;;;;;;;;5140722;27;20122;-87
2022/05/03 06:33:49;;;;;;;34.45;20.55;;;;;;;;;;5139974;27;20041;-87
2022/05/03 06:36:35;;;;;;;42.90;23.23;;;;;;;;;;5156085;27;20053;-87
2022/05/03 06:39:20;;;;;;;35.28;21.52;;;;;;;;;;5156023;27;20038;-87
2022/05/03 06:42:05;;;;;;;36.40;21.58;;;;;;;;;;5140391;27;20398;-87
2022/05/03 06:44:50;;;;;;;38.33;22.15;;;;;;;;;;5139881;27;20033;-87
2022/05/03 06:47:34;;;;;;;36.58;22.48;;;;;;;;;;5125925;27;20604;-87
2022/05/03 06:50:19;;;;;;;44.05;24.95;;;;;;;;;;5139207;27;20080;-87
2022/05/03 06:53:04;;;;;;;40.65;23.70;;;;;;;;;;5140229;27;20046;-87
2022/05/03 06:55:51;;;;;;;40.35;25.30;;;;;;;;;;5139494;27;20073;-88
2022/05/03 06:58:36;;;;;;;42.83;24.88;;;;;;;;;;5139774;27;20397;-89
2022/05/03 07:01:21;;;;;;;39.53;23.40;;;;;;;;;;5139810;27;20049;-87
2022/05/03 07:04:08;;;;;;;39.38;24.15;;;;;;;;;;5140056;27;20034;-87
2022/05/03 07:06:52;;;;;;;40.58;24.48;;;;;;;;;;5124808;27;20042;-87
2022/05/03 07:09:37;;;;;;;35.22;22.92;;;;;;;;;;5139840;27;20543;-87
2022/05/03 07:12:21;;;;;;;40.13;24.35;;;;;;;;;;5139638;27;20152;-87
2022/05/03 07:15:08;;;;;;;43.53;24.35;;;;;;;;;;5139603;27;20078;-87
2022/05/03 07:24:00;;;;;;;33.95;23.17;;;;;;;;;;5155000;27;20146;-87
2022/05/03 07:26:45;;;;;;;47.03;24.40;;;;;;;;;;5139457;27;20037;-87
2022/05/03 07:29:30;;;;;;;40.08;22.02;;;;;;;;;;5125771;27;20090;-88
2022/05/03 07:32:14;;;;;;;36.85;20.40;;;;;;;;;;5166626;27;20050;-88
2022/05/03 07:34:59;;;;;;;32.83;19.10;;;;;;;;;;5161718;27;20021;-87
2022/05/03 07:37:43;;;;;;;43.03;19.75;;;;;;;;;;5161969;27;20052;-88
2022/05/03 07:40:28;;;;;;;28.55;16.80;;;;;;;;;;5175586;27;20111;-87
2022/05/03 07:43:13;;;;;;;25.02;13.45;;;;;;;;;;5170062;27;20033;-87
2022/05/03 07:45:57;;;;;;;32.03;13.00;;;;;;;;;;5143708;27;20034;-87
2022/05/03 07:48:44;;;;;;;19.13;7.43;;;;;;;;;;5139877;27;20547;-87
2022/05/03 07:51:28;;;;;;;11.48;5.43;;;;;;;;;;5139744;27;20045;-87
2022/05/03 07:54:13;;;;;;;10.98;5.20;;;;;;;;;;5139456;27;20163;-88
2022/05/03 07:56:57;;;;;;;18.95;7.45;;;;;;;;;;5138735;27;20033;-87
2022/05/03 07:59:42;;;;;;;11.73;4.80;;;;;;;;;;5138873;27;20037;-87
2022/05/03 08:02:27;;;;;;;12.95;5.43;;;;;;;;;;5139142;27;20444;-86
2022/05/03 08:05:11;;;;;;;16.83;5.75;;;;;;;;;;5138774;27;20038;-87
2022/05/03 08:07:57;;;;;;;9.80;5.68;;;;;;;;;;5138279;27;20064;-87
2022/05/03 08:10:42;;;;;;;13.95;5.40;;;;;;;;;;5138688;27;20073;-88
2022/05/03 08:13:27;;;;;;;14.70;5.82;;;;;;;;;;5138803;27;20033;-87
2022/05/03 08:16:25;;;;;;;14.88;5.97;;;;;;;;;;5138576;27;20033;-88
2022/05/03 08:19:09;;;;;;;17.02;6.38;;;;;;;;;;5153726;27;20077;-88
2022/05/03 08:22:06;;;;;;;17.02;5.55;;;;;;;;;;5138117;27;20046;-88
2022/05/03 08:24:51;;;;;;;18.30;6.70;;;;;;;;;;5138112;27;20083;-88
2022/05/03 08:27:38;;;;;;;13.57;6.20;;;;;;;;;;5138423;27;20096;-87
2022/05/03 08:30:23;;;;;;;21.55;6.18;;;;;;;;;;5138536;27;20503;-87
2022/05/03 08:33:07;;;;;;;14.48;6.63;;;;;;;;;;5138106;27;20435;-86
2022/05/03 08:35:52;;;;;;;18.20;6.20;;;;;;;;;;5153702;27;20110;-88
2022/05/03 08:44:44;;;;;;;16.67;6.13;;;;;;;;;;5141245;27;20509;-87
2022/05/03 08:47:29;;;;;;;18.50;5.93;;;;;;;;;;5138372;27;20042;-87
2022/05/03 08:50:16;;;;;;;17.45;5.78;;;;;;;;;;5138178;27;20037;-87
2022/05/03 08:53:02;;;;;;;18.80;6.13;;;;;;;;;;5137991;27;20100;-87
2022/05/03 08:55:50;;;;;;;23.77;6.32;;;;;;;;;;5138389;27;20489;-87
2022/05/03 08:58:35;;;;;;;16.17;4.82;;;;;;;;;;5138577;27;20071;-87
2022/05/03 09:01:20;;;;;;;17.00;5.20;;;;;;;;;;5123883;27;20390;-86
2022/05/03 09:04:06;;;;;;;24.45;5.40;;;;;;;;;;5137927;27;20050;-88
2022/05/03 09:06:53;;;;;;;13.88;5.18;;;;;;;;;;5138158;27;20056;-91
2022/05/03 09:09:39;;;;;;;19.90;5.65;;;;;;;;;;5123787;27;20046;-87
2022/05/03 09:12:33;;;;;;;28.88;5.60;;;;;;;;;;5138557;27;20118;-88
2022/05/03 09:15:30;;;;;;;16.50;5.07;;;;;;;;;;5142415;27;20118;-88
2022/05/03 09:18:23;;;;;;;17.42;6.07;;;;;;;;;;5151493;27;20038;-88
2022/05/03 09:24:24;;;;;;;17.88;5.47;;;;;;;;;;5158105;27;20406;-87
2022/05/03 09:27:18;;;;;;;18.02;5.40;;;;;;;;;;5141373;27;20042;-87
2022/05/03 09:30:03;;;;;;;15.10;5.05;;;;;;;;;;5141359;27;20037;-87
2022/05/03 09:32:52;;;;;;;12.13;4.78;;;;;;;;;;5141589;27;20071;-88
2022/05/03 09:35:37;;;;;;;21.08;4.90;;;;;;;;;;5157299;27;20042;-88
2022/05/03 09:38:26;;;;;;;24.60;5.55;;;;;;;;;;5141526;27;20117;-87
2022/05/03 09:41:14;;;;;;;20.77;5.05;;;;;;;;;;5141012;27;20076;-87
2022/05/03 09:44:09;;;;;;;15.02;4.63;;;;;;;;;;5140950;27;20033;-88
2022/05/03 09:46:54;;;;;;;15.75;5.30;;;;;;;;;;5157074;27;20079;-87
2022/05/03 09:49:40;;;;;;;19.88;4.53;;;;;;;;;;5141336;27;20104;-87
2022/05/03 09:52:28;;;;;;;14.90;4.18;;;;;;;;;;5141188;27;20084;-88
2022/05/03 09:55:13;;;;;;;14.63;4.43;;;;;;;;;;5140778;27;20047;-88
2022/05/03 09:58:00;;;;;;;15.60;4.15;;;;;;;;;;5140682;27;20072;-87
2022/05/03 10:00:46;;;;;;;12.02;3.50;;;;;;;;;;5141000;27;20065;-87
2022/05/03 10:03:31;;;;;;;17.63;3.45;;;;;;;;;;5141163;27;20080;-87
2022/05/03 10:06:20;;;;;;;10.50;3.53;;;;;;;;;;5156251;27;20398;-88
2022/05/03 10:09:05;;;;;;;14.13;3.75;;;;;;;;;;5156111;27;20107;-87
2022/05/03 10:11:52;;;;;;;13.45;5.18;;;;;;;;;;5141124;27;20037;-87
2022/05/03 10:14:37;;;;;;;11.45;3.22;;;;;;;;;;5156522;27;20049;-88
2022/05/03 10:20:46;;;;;;;15.55;3.92;;;;;;;;;;5156249;27;20130;-87
2022/05/03 10:23:35;;;;;;;9.50;3.47;;;;;;;;;;5140802;27;20060;-88
2022/05/03 10:26:20;;;;;;;12.55;3.60;;;;;;;;;;5140785;27;20049;-88
2022/05/03 10:29:06;;;;;;;16.80;4.45;;;;;;;;;;5140996;27;20069;-87
2022/05/03 10:32:00;;;;;;;12.68;3.80;;;;;;;;;;5140441;27;20046;-87
2022/05/03 10:35:06;;;;;;;20.30;4.25;;;;;;;;;;5140597;27;20447;-87
2022/05/03 10:37:54;;;;;;;17.83;4.03;;;;;;;;;;5155987;27;20053;-87
2022/05/03 10:40:49;;;;;;;13.30;3.75;;;;;;;;;;5155981;27;20045;-87
2022/05/03 10:43:34;;;;;;;16.33;4.00;;;;;;;;;;5156003;27;20440;-87
2022/05/03 10:46:22;;;;;;;16.50;3.75;;;;;;;;;;5140331;27;20092;-87
2022/05/03 10:49:15;;;;;;;13.18;3.85;;;;;;;;;;5139808;27;20539;-87
2022/05/03 10:52:00;;;;;;;14.98;3.33;;;;;;;;;;5140127;27;20417;-86
2022/05/03 10:55:06;;;;;;;12.00;4.13;;;;;;;;;;5140246;27;20058;-87
2022/05/03 10:58:19;;;;;;;12.73;3.25;;;13.20;99.90;;;;;;5140019;27;20034;-86
2022/05/03 11:01:04;;;;;;;9.38;2.70;;;;;;;;;;5139854;27;20062;-88
2022/05/03 11:03:51;;;;;;;12.52;4.18;;;;;;;;;;5139740;27;20079;-87
2022/05/03 11:06:40;;;;;;;15.40;3.40;;;;;;;;;;5139854;27;20042;-87
2022/05/03 11:09:25;;;;;;;11.02;2.72;;;;;;;;;;5139340;27;20090;-87
2022/05/03 11:12:10;;;;;;;9.85;2.85;;;;;;;;;;5139235;27;20526;-86
2022/05/03 11:14:55;;;;;;;10.35;3.00;;;;;;;;;;5125352;27;20041;-88
2022/05/03 11:17:43;;;;;;;11.45;2.85;;;;;;;;;;5139569;27;20033;-87
2022/05/03 11:20:27;;;;;;;8.13;2.60;;;;;;;;;;5139043;27;20057;-86
2022/05/03 11:23:13;;;;;;;8.35;2.60;;;;;;;;;;5132439;27;20080;-88
2022/05/03 11:25:57;;;;;;;11.13;3.08;;;;;;;;;;5133565;27;20039;-87
2022/05/03 11:28:45;;;;;;;8.88;2.47;;;;;;;;;;5133292;27;20042;-86
2022/05/03 11:31:30;;;;;;;6.75;2.60;;;;;;;;;;5133098;27;20046;-87
2022/05/03 11:34:14;;;;;;;7.78;2.20;;;;;;;;;;5133127;27;20482;-87
2022/05/03 11:37:01;;;;;;;8.38;2.15;;;;;;;;;;5133207;27;20086;-87
2022/05/03 11:39:46;;;;;;;8.52;2.55;;;;;;;;;;5133242;27;20460;-88
2022/05/03 11:42:36;;;;;;;10.63;2.47;;;;;;;;;;5132897;27;20079;-87
2022/05/03 11:45:20;;;;;;;7.97;2.45;;;;;;;;;;5133714;27;20042;-88
2022/05/03 11:48:05;;;;;;;7.80;2.42;;;;;;;;;;5133223;27;20034;-87
2022/05/03 11:56:57;;;;;;;10.15;2.08;;;;;;;;;;5134254;27;20042;-86
2022/05/03 11:59:42;;;;;;;5.78;2.30;;;;;;;;;;5133155;27;20034;-88
2022/05/03 12:02:37;;;;;;;8.43;2.47;;;;;;;;;;5133652;27;20060;-87
2022/05/03 12:05:22;;;;;;;6.53;2.20;;;;;;;;;;5132780;27;20537;-88
2022/05/03 12:08:17;;;;;;;8.85;2.10;;;;;;;;;;5133069;27;20046;-88
2022/05/03 12:11:01;;;;;;;8.70;3.13;;;;;;;;;;5133991;27;20493;-88
2022/05/03 12:13:49;;;;;;;8.35;2.28;;;;;;;;;;5118782;27;20084;-91
2022/05/03 12:16:35;;;;;;;5.70;2.17;;;;;;;;;;5133830;27;20123;-88
2022/05/03 12:19:20;;;;;;;12.38;2.45;;;;;;;;;;5134226;28;20410;-87
2022/05/03 12:22:11;;;;;;;8.25;1.90;;;;;;;;;;5118671;28;20406;-87
2022/05/03 12:24:56;;;;;;;6.63;1.95;;;;;;;;;;5114056;28;20104;-86
2022/05/03 12:27:48;;;;;;;5.28;2.30;;;;;;;;;;5112924;28;20042;-88
2022/05/03 12:30:33;;;;;;;7.15;2.08;;;;;;;;;;5112005;28;20034;-87
2022/05/03 12:33:18;;;;;;;7.40;1.85;;;;;;;;;;5112944;28;20552;-87
2022/05/03 12:36:02;;;;;;;6.22;1.60;;;;;;;;;;5113554;28;20084;-87
2022/05/03 12:38:48;;;;;;;5.28;1.70;;;;;;;;;;5118453;28;20473;-87
2022/05/03 12:41:37;;;;;;;12.63;2.17;;;;;;;;;;5130715;28;20042;-86
2022/05/03 12:44:23;;;;;;;9.32;2.78;;;;;;;;;;5130442;28;20176;-85
2022/05/03 12:47:08;;;;;;;10.65;2.65;;;;;;;;;;5130880;28;20054;-86
2022/05/03 12:49:53;;;;;;;8.48;2.20;;;;;;;;;;5137408;28;20030;-84
2022/05/03 12:52:38;;;;;;;8.68;2.03;;;;;;;;;;5128304;28;20046;-87
2022/05/03 12:55:23;;;;;;;10.77;2.20;;;;;;;;;;5118019;28;20506;-87
2022/05/03 12:58:22;;;;;;;7.35;2.00;;;;;;;;;;5117381;28;20383;-87
2022/05/03 13:01:07;;;;;;;7.03;1.70;;;;;;;;;;5118654;28;20089;-86
2022/05/03 13:03:51;;;;;;;9.45;2.30;;;;;;;;;;5116573;28;20039;-86
2022/05/03 13:06:36;;;;;;;5.57;2.08;;;;;;;;;;5116068;28;20560;-87
2022/05/03 13:09:22;;;;;;;5.10;2.10;;;;;;;;;;5115649;28;20115;-86
2022/05/03 13:12:07;;;;;;;7.10;2.05;;;;;;;;;;5117003;28;20097;-87
2022/05/03 13:14:52;;;;;;;8.27;2.20;;;;;;;;;;5116900;28;20039;-88
2022/05/03 13:17:37;;;;;;;9.13;2.25;;;;;;;;;;5116339;28;20030;-87
2022/05/03 13:20:21;;;;;;;8.85;2.45;;;;;;;;;;5115224;28;20532;-89
2022/05/03 13:23:06;;;;;;;6.45;1.95;;;;;;;;;;5127312;27;20514;-87
2022/05/03 13:25:51;;;;;;;7.57;2.15;;;;;;;;;;5158491;27;20042;-87
2022/05/03 13:28:36;;;;;;;7.47;2.40;;;;;;;;;;5141458;27;20098;-88
2022/05/03 13:31:22;;;;;;;5.22;1.85;;;;;;;;;;5142275;27;20485;-88
2022/05/03 13:34:08;;;;;;;9.43;2.25;;;;;;;;;;5142177;27;20138;-90
2022/05/03 13:43:12;;;;;;;8.82;2.00;;;;;;;;;;5130404;27;20128;-87
2022/05/03 13:45:58;;;;;;;13.15;2.55;;;;;;;;;;5141613;27;20088;-87
2022/05/03 13:48:46;;;;;;;8.57;2.25;;;;;;;;;;5140949;27;20033;-90
2022/05/03 13:51:30;;;;;;;6.43;2.15;;;;;;;;;;5140873;27;20041;-87
2022/05/03 13:54:15;;;;;;;11.75;2.63;;;;;;;;;;5141564;27;20446;-88
2022/05/03 13:57:00;;;;;;;5.90;2.10;;;;;;;;;;5141373;27;20167;-88
2022/05/03 13:59:44;;;;;;;11.50;1.85;;;;;;;;;;5140275;27;20507;-87
2022/05/03 14:02:29;;;;;;;10.77;2.17;;;;;;;;;;5140718;27;20514;-86
2022/05/03 14:05:17;;;;;;;14.32;2.72;;;;;;;;;;5141410;27;20052;-88
2022/05/03 14:08:01;;;;;;;9.95;2.00;;;;;;;;;;5141215;27;20071;-87
2022/05/03 14:10:46;;;;;;;7.15;2.10;;;;;;;;;;5156548;27;20099;-87
2022/05/03 14:13:37;;;;;;;8.45;2.20;;;;;;;;;;5140384;27;20041;-88
2022/05/03 14:16:22;;;;;;;7.60;2.47;;;;;;;;;;5156479;27;20446;-88
2022/05/03 14:19:07;;;;;;;8.15;2.17;;;;;;;;;;5140984;27;20489;-89
2022/05/03 14:21:54;;;;;;;8.45;2.33;;;;;;;;;;5140222;27;20081;-87
2022/05/03 14:24:38;;;;;;;7.50;2.22;;;;;;;;;;5140193;27;20103;-87
2022/05/03 14:27:23;;;;;;;12.82;3.42;;;;;;;;;;5140802;27;20517;-87
2022/05/03 14:30:09;;;;;;;11.27;2.25;;;;;;;;;;5140531;27;20386;-88
2022/05/03 14:32:54;;;;;;;6.38;2.08;;;;;;;;;;5140057;27;20119;-88
2022/05/03 14:35:38;;;;;;;9.77;2.72;;;;;;;;;;5155698;27;20042;-88
2022/05/03 14:38:23;;;;;;;8.02;2.40;;;;;;;;;;5140332;27;20034;-87
2022/05/03 14:41:07;;;;;;;9.77;2.25;;;;;;;;;;5125836;27;20045;-88
2022/05/03 14:43:52;;;;;;;9.07;2.17;;;;;;;;;;5155472;27;20075;-87
2022/05/03 14:46:37;;;;;;;14.20;2.92;;;;;;;;;;5139838;27;20395;-88
2022/05/03 14:49:21;;;;;;;7.55;2.67;;;;;;;;;;5140529;27;20439;-87
2022/05/03 14:52:09;;;;;;;8.25;2.00;;;;;;;;;;5155974;27;20087;-88
2022/05/03 14:54:54;;;;;;;6.25;1.70;;;;;;;;;;5139762;27;20156;-88
2022/05/03 15:03:45;;;;;;;6.75;2.40;;;;;;;;;;5155085;27;20336;-88
2022/05/03 15:06:32;;;;;;;9.98;2.33;;;;;;;;;;5139909;27;20542;-88
2022/05/03 15:09:17;;;;;;;8.65;2.60;;;;;;;;;;5139716;27;20071;-88
2022/05/03 15:12:02;;;;;;;10.50;2.33;;;;;;;;;;5138929;27;20082;-88
2022/05/03 15:14:46;;;;;;;8.82;2.13;;;;;;;;;;5139386;27;20083;-88
2022/05/03 15:17:31;;;;;;;8.82;2.28;;;;;;;;;;5139679;27;20073;-89
2022/05/03 15:20:17;;;;;;;9.82;2.15;;;;;;;;;;5139968;27;20087;-88
2022/05/03 15:26:05;;;;;;;;;;;14.60;91.10;;;;;;5156403;27;20394;-88
2022/05/03 15:28:50;;;;;;;11.05;2.20;;;;;;;;;;5154882;27;19914;-88
2022/05/03 15:31:35;;;;;;;7.70;1.98;;;;;;;;;;5139859;27;20121;-88
2022/05/03 15:34:20;;;;;;;8.35;2.42;;;;;;;;;;5139866;27;20091;-88
2022/05/03 15:37:05;;;;;;;8.70;2.30;;;;;;;;;;5139400;27;20041;-89
2022/05/03 15:39:53;;;;;;;8.00;2.33;;;;;;;;;;5139116;27;20455;-88
2022/05/03 15:42:38;;;;;;;8.43;2.45;;;;;;;;;;5138822;27;20053;-88
2022/05/03 15:45:23;;;;;;;7.50;2.35;;;;;;;;;;5140364;27;20104;-87
2022/05/03 15:48:09;;;;;;;7.65;2.28;;;;;;;;;;5155459;27;20038;-88
2022/05/03 15:50:54;;;;;;;10.48;2.58;;;;;;;;;;5141784;27;20080;-88
2022/05/03 15:53:39;;;;;;;6.97;2.50;;;;;;;;;;5139307;27;20496;-90
2022/05/03 15:56:27;;;;;;;7.80;2.63;;;;;;;;;;5155624;27;20106;-88
2022/05/03 15:59:11;;;;;;;8.30;2.13;;;;;;;;;;5139622;27;20482;-88
2022/05/03 16:01:56;;;;;;;9.82;2.20;;;;;;;;;;5139353;27;20452;-89
2022/05/03 16:04:44;;;;;;;8.82;2.80;;;;;;;;;;5138828;27;20343;-88
2022/05/03 16:07:29;;;;;;;10.73;2.42;;;;;;;;;;5139276;27;20142;-88
2022/05/03 16:10:14;;;;;;;9.68;2.95;;;;;;;;;;5139191;27;20111;-89
2022/05/03 16:13:02;;;;;;;7.40;2.45;;;;;;;;;;5138325;27;20520;-89
2022/05/03 16:15:47;;;;;;;7.82;2.00;;;;;;;;;;5138386;27;20072;-88
2022/05/03 16:18:31;;;;;;;13.35;2.50;;;;;;;;;;5161648;27;20063;-88
2022/05/03 16:21:36;;;;;;;11.57;2.83;;;;;;;;;;5138774;27;20103;-87
2022/05/03 16:24:22;;;;;;;7.18;2.10;;;;;;;;;;5145337;27;20102;-89
2022/05/03 16:27:07;;;;;;;12.05;3.17;;;;;;;;;;5145490;27;20080;-89
2022/05/03 16:29:52;;;;;;;9.23;3.15;;;;;;;;;;5145807;27;20110;-88
2022/05/03 16:32:39;;;;;;;8.20;2.17;;;;;;;;;;5146345;27;20075;-88
2022/05/03 16:35:24;;;;;;;6.18;2.25;;;;;;;;;;5145668;27;20390;-88
2022/05/03 16:44:15;;;;;;;9.25;2.45;;;;;;;;;;5161676;27;20275;-88
2022/05/03 16:47:00;;;;;;;10.85;2.85;;;;;;;;;;5146019;27;20078;-87
2022/05/03 16:49:46;;;;;;;10.50;2.65;;;;;;;;;;5145263;27;20042;-90
2022/05/03 16:52:31;;;;;;;10.63;2.58;;;;;;;;;;5131163;27;20075;-89
2022/05/03 16:55:19;;;;;;;11.07;2.75;;;;;;;;;;5166780;27;20038;-88
2022/05/03 16:58:06;;;;;;;9.45;2.95;;;;;;;;;;5161313;27;20041;-88
2022/05/03 17:00:51;;;;;;;14.63;2.78;;;;;;;;;;5145171;27;20046;-88
2022/05/03 17:03:36;;;;;;;8.18;2.53;;;;;;;;;;5164089;27;20109;-88
2022/05/03 17:06:21;;;;;;;8.73;2.53;;;;;;;;;;5160796;27;20037;-87
2022/05/03 17:09:06;;;;;;;14.63;2.72;;;;;;;;;;5144854;27;20122;-89
2022/05/03 17:11:51;;;;;;;10.93;2.70;;;;;;;;;;5144721;27;20493;-88
2022/05/03 17:14:36;;;;;;;5.60;2.05;;;;;;;;;;5145068;27;20030;-88
2022/05/03 17:17:21;;;;;;;10.77;2.40;;;;;;;;;;5130670;27;20394;-88
2022/05/03 17:20:05;;;;;;;10.15;3.03;;;;;;;;;;5144492;27;20037;-88
2022/05/03 17:22:50;;;;;;;6.03;2.60;;;;;;;;;;5144485;27;20038;-88
2022/05/03 17:25:38;;;;;;;8.07;2.65;;;;;;;;;;5144960;27;20045;-89